createdAt,value
2023-03-01T00:01:18.165Z,7.32
2023-03-01T00:03:46.309Z,8.00
2023-03-01T00:06:14.874Z,7.93
2023-03-01T00:08:43.527Z,7.70
2023-03-01T00:11:15.909Z,7.15
2023-03-01T00:13:44.719Z,7.13
2023-03-01T00:16:14.805Z,7.10
2023-03-01T00:18:42.933Z,7.85
2023-03-01T00:21:11.032Z,7.10
2023-03-01T00:23:39.408Z,7.50
2023-03-01T00:26:09.556Z,6.78
2023-03-01T00:28:39.082Z,6.90
2023-03-01T00:31:08.144Z,6.65
2023-03-01T00:33:36.386Z,6.85
2023-03-01T00:36:05.060Z,6.65
2023-03-01T00:38:36.374Z,6.70
2023-03-01T00:41:07.583Z,6.70
2023-03-01T00:43:37.558Z,6.55
2023-03-01T00:46:08.292Z,6.40
2023-03-01T00:48:37.140Z,7.05
2023-03-01T00:51:09.322Z,6.82
2023-03-01T00:53:38.157Z,6.90
2023-03-01T00:56:07.841Z,6.75
2023-03-01T00:58:36.203Z,6.13
2023-03-01T01:01:18.506Z,6.85
2023-03-01T01:03:51.644Z,6.30
2023-03-01T01:06:21.594Z,6.43
2023-03-01T01:08:49.927Z,6.45
2023-03-01T01:11:18.546Z,6.70
2023-03-01T01:13:48.134Z,6.05
2023-03-01T01:16:18.937Z,6.38
2023-03-01T01:18:47.620Z,6.68
2023-03-01T01:21:17.813Z,6.30
2023-03-01T01:23:47.206Z,6.10
2023-03-01T01:26:20.087Z,5.93
2023-03-01T01:28:49.317Z,5.88
2023-03-01T01:31:19.280Z,5.55
2023-03-01T01:33:47.357Z,5.60
2023-03-01T01:36:15.172Z,5.43
2023-03-01T01:38:43.632Z,6.43
2023-03-01T01:41:13.348Z,5.80
2023-03-01T01:43:42.809Z,5.60
2023-03-01T01:46:22.881Z,5.78
2023-03-01T01:48:55.662Z,5.50
2023-03-01T01:51:27.692Z,6.03
2023-03-01T01:54:01.101Z,5.30
2023-03-01T01:56:31.199Z,5.80
2023-03-01T01:58:59.683Z,6.00
2023-03-01T02:01:29.017Z,5.47
2023-03-01T02:03:57.155Z,5.63
2023-03-01T02:06:30.628Z,5.57
2023-03-01T02:09:03.229Z,5.35
2023-03-01T02:11:33.318Z,5.72
2023-03-01T02:14:01.231Z,5.75
2023-03-01T02:16:32.179Z,5.25
2023-03-01T02:19:00.724Z,5.40
2023-03-01T02:21:40.215Z,5.32
2023-03-01T02:24:20.049Z,5.60
2023-03-01T02:26:53.789Z,6.00
2023-03-01T02:29:28.819Z,5.78
2023-03-01T02:31:59.540Z,5.45
2023-03-01T02:34:30.029Z,5.10
2023-03-01T02:37:01.874Z,5.20
2023-03-01T02:39:33.548Z,4.95
2023-03-01T02:42:01.748Z,5.10
2023-03-01T02:44:30.887Z,5.30
2023-03-01T02:46:59.923Z,5.63
2023-03-01T02:49:31.375Z,4.70
2023-03-01T02:52:19.474Z,4.93
2023-03-01T02:54:52.016Z,4.90
2023-03-01T02:57:20.496Z,4.95
2023-03-01T02:59:51.986Z,5.32
2023-03-01T03:02:36.856Z,4.68
2023-03-01T03:05:09.182Z,4.93
2023-03-01T03:07:38.510Z,4.72
2023-03-01T03:10:12.134Z,5.43
2023-03-01T03:12:40.339Z,4.97
2023-03-01T03:15:13.473Z,5.03
2023-03-01T03:17:44.155Z,5.65
2023-03-01T03:20:19.752Z,5.32
2023-03-01T03:22:48.139Z,5.40
2023-03-01T03:25:16.205Z,4.80
2023-03-01T03:27:45.350Z,5.03
2023-03-01T03:30:18.766Z,5.30
2023-03-01T03:32:53.035Z,5.57
2023-03-01T03:35:22.398Z,5.15
2023-03-01T03:38:07.127Z,5.43
2023-03-01T03:40:37.548Z,4.97
2023-03-01T03:43:06.320Z,4.90
2023-03-01T03:45:36.034Z,5.57
2023-03-01T03:48:05.790Z,4.82
2023-03-01T03:50:34.057Z,5.32
2023-03-01T03:53:03.278Z,4.70
2023-03-01T03:55:31.726Z,5.63
2023-03-01T03:58:03.093Z,4.97
2023-03-01T04:00:31.043Z,4.57
2023-03-01T04:03:00.261Z,4.65
2023-03-01T04:05:29.490Z,4.90
2023-03-01T04:08:08.119Z,4.88
2023-03-01T04:10:38.395Z,5.10
2023-03-01T04:13:06.777Z,5.00
2023-03-01T04:15:35.990Z,4.68
2023-03-01T04:18:06.054Z,5.15
2023-03-01T04:20:36.415Z,5.10
2023-03-01T04:23:11.517Z,4.95
2023-03-01T04:25:40.871Z,4.73
2023-03-01T04:28:09.164Z,4.82
2023-03-01T04:30:37.544Z,5.18
2023-03-01T04:33:08.503Z,4.63
2023-03-01T04:35:37.366Z,4.93
2023-03-01T04:38:05.676Z,4.68
2023-03-01T04:40:33.667Z,5.30
2023-03-01T04:43:01.717Z,4.70
2023-03-01T04:45:29.513Z,4.65
2023-03-01T04:47:59.059Z,4.63
2023-03-01T04:50:28.344Z,4.47
2023-03-01T04:52:59.276Z,5.00
2023-03-01T04:55:27.784Z,5.07
2023-03-01T04:57:56.048Z,4.93
2023-03-01T05:00:24.980Z,4.87
2023-03-01T05:02:55.122Z,4.72
2023-03-01T05:05:26.391Z,4.70
2023-03-01T05:07:57.672Z,5.23
2023-03-01T05:10:26.542Z,5.63
2023-03-01T05:12:54.473Z,5.40
2023-03-01T05:15:26.383Z,5.83
2023-03-01T05:17:55.115Z,5.87
2023-03-01T05:20:24.660Z,5.70
2023-03-01T05:22:53.229Z,6.13
2023-03-01T05:25:24.684Z,6.17
2023-03-01T05:27:52.746Z,6.43
2023-03-01T05:30:22.537Z,6.53
2023-03-01T05:32:56.673Z,6.17
2023-03-01T05:35:25.228Z,6.10
2023-03-01T05:37:53.503Z,6.63
2023-03-01T05:40:25.364Z,6.20
2023-03-01T05:42:56.171Z,5.38
2023-03-01T05:45:25.766Z,6.33
2023-03-01T05:47:55.831Z,6.40
2023-03-01T05:50:26.453Z,6.40
2023-03-01T05:53:01.537Z,5.70
2023-03-01T05:55:32.480Z,5.47
2023-03-01T05:58:01.641Z,6.53
2023-03-01T06:00:30.718Z,5.70
2023-03-01T06:02:59.780Z,5.80
2023-03-01T06:05:28.786Z,5.90
2023-03-01T06:07:57.058Z,5.45
2023-03-01T06:10:25.211Z,6.10
2023-03-01T06:12:55.372Z,5.63
2023-03-01T06:15:24.318Z,5.80
2023-03-01T06:17:52.548Z,5.63
2023-03-01T06:20:22.814Z,6.10
2023-03-01T06:22:51.325Z,5.97
2023-03-01T06:25:21.373Z,5.33
2023-03-01T06:27:50.029Z,5.87
2023-03-01T06:30:22.307Z,5.77
2023-03-01T06:32:50.393Z,5.90
2023-03-01T06:35:19.989Z,5.43
2023-03-01T06:37:48.431Z,5.00
2023-03-01T06:40:16.759Z,5.63
2023-03-01T06:42:49.751Z,5.47
2023-03-01T06:45:19.677Z,5.90
2023-03-01T06:47:47.876Z,5.73
2023-03-01T06:50:16.852Z,6.20
2023-03-01T06:52:45.621Z,6.10
2023-03-01T06:55:14.627Z,5.67
2023-03-01T06:57:42.765Z,5.77
2023-03-01T07:00:12.124Z,6.13
2023-03-01T07:02:41.582Z,6.13
2023-03-01T07:05:09.738Z,5.77
2023-03-01T07:07:37.573Z,6.40
2023-03-01T07:10:06.292Z,6.43
2023-03-01T07:12:34.141Z,6.00
2023-03-01T07:15:01.909Z,6.20
2023-03-01T07:17:29.659Z,5.93
2023-03-01T07:19:58.872Z,6.40
2023-03-01T07:22:26.691Z,6.87
2023-03-01T07:24:54.511Z,6.63
2023-03-01T07:27:22.386Z,6.60
2023-03-01T07:29:50.171Z,6.20
2023-03-01T07:32:18.112Z,6.60
2023-03-01T07:34:46.000Z,6.67
2023-03-01T07:37:15.370Z,6.50
2023-03-01T07:39:43.194Z,7.33
2023-03-01T07:42:11.180Z,6.97
2023-03-01T07:44:39.058Z,7.30
2023-03-01T07:47:06.991Z,7.20
2023-03-01T07:49:34.905Z,8.03
2023-03-01T07:52:02.769Z,7.10
2023-03-01T07:54:31.922Z,7.67
2023-03-01T07:57:00.123Z,7.37
2023-03-01T07:59:29.961Z,7.30
2023-03-01T08:01:58.812Z,8.33
2023-03-01T08:04:27.595Z,7.40
2023-03-01T08:06:55.666Z,7.37
2023-03-01T08:09:23.962Z,7.50
2023-03-01T08:11:53.514Z,8.23
2023-03-01T08:14:21.684Z,7.03
2023-03-01T08:16:51.682Z,7.77
2023-03-01T08:19:19.806Z,7.73
2023-03-01T08:21:47.645Z,8.90
2023-03-01T08:24:15.432Z,6.83
2023-03-01T08:26:43.276Z,7.40
2023-03-01T08:29:12.591Z,6.70
2023-03-01T08:31:41.787Z,6.47
2023-03-01T08:34:12.507Z,6.80
2023-03-01T08:36:42.135Z,6.93
2023-03-01T08:39:11.478Z,6.60
2023-03-01T08:41:40.202Z,7.00
2023-03-01T08:44:08.916Z,7.00
2023-03-01T08:46:39.816Z,7.50
2023-03-01T08:49:08.681Z,6.88
2023-03-01T08:51:37.780Z,7.13
2023-03-01T08:54:06.160Z,6.85
2023-03-01T08:56:34.103Z,7.53
2023-03-01T08:59:02.092Z,7.83
2023-03-01T09:01:30.014Z,8.30
2023-03-01T09:03:59.834Z,8.27
2023-03-01T09:06:27.772Z,8.27
2023-03-01T09:08:55.736Z,7.63
2023-03-01T09:11:24.462Z,7.17
2023-03-01T09:13:52.546Z,7.47
2023-03-01T09:16:22.666Z,7.65
2023-03-01T09:18:52.755Z,7.72
2023-03-01T09:21:38.623Z,7.90
2023-03-01T09:24:08.803Z,7.70
2023-03-01T09:26:36.867Z,7.43
2023-03-01T09:29:04.753Z,7.82
2023-03-01T09:31:32.720Z,8.00
2023-03-01T09:34:00.768Z,7.83
2023-03-01T09:36:30.368Z,8.38
2023-03-01T09:39:00.111Z,7.75
2023-03-01T09:41:46.355Z,7.70
2023-03-01T09:44:32.096Z,8.18
2023-03-01T09:47:01.451Z,7.33
2023-03-01T09:49:32.336Z,7.77
2023-03-01T09:52:13.302Z,7.05
2023-03-01T09:54:41.422Z,6.97
2023-03-01T09:57:20.452Z,7.40
2023-03-01T10:00:05.282Z,7.75
2023-03-01T10:02:43.968Z,7.45
2023-03-01T10:05:29.760Z,7.15
2023-03-01T10:08:15.472Z,7.20
2023-03-01T10:10:46.473Z,7.28
2023-03-01T10:13:19.564Z,7.28
2023-03-01T10:15:55.952Z,7.18
2023-03-01T10:18:27.258Z,6.90
2023-03-01T10:20:57.829Z,7.68
2023-03-01T10:23:28.924Z,7.38
2023-03-01T10:26:14.318Z,7.25
2023-03-01T10:28:54.012Z,6.70
2023-03-01T10:31:29.385Z,7.30
2023-03-01T10:33:59.687Z,7.05
2023-03-01T10:36:27.521Z,7.25
2023-03-01T10:38:59.001Z,7.28
2023-03-01T10:41:29.063Z,7.95
2023-03-01T10:44:00.541Z,7.22
2023-03-01T10:46:30.700Z,7.43
2023-03-01T10:49:14.208Z,7.20
2023-03-01T10:51:42.686Z,7.35
2023-03-01T10:54:21.381Z,7.43
2023-03-01T10:56:51.745Z,7.22
2023-03-01T10:59:28.621Z,6.45
2023-03-01T11:02:25.895Z,7.30
2023-03-01T11:05:05.212Z,7.00
2023-03-01T11:07:48.471Z,7.28
2023-03-01T11:10:21.435Z,6.80
2023-03-01T11:12:49.499Z,7.15
2023-03-01T11:15:29.948Z,7.03
2023-03-01T11:18:12.621Z,7.15
2023-03-01T11:20:42.454Z,7.43
2023-03-01T11:23:14.193Z,8.07
2023-03-01T11:25:45.758Z,6.63
2023-03-01T11:28:18.425Z,7.38
2023-03-01T11:31:06.783Z,7.35
2023-03-01T11:33:41.907Z,7.38
2023-03-01T11:36:17.821Z,7.88
2023-03-01T11:38:45.812Z,7.13
2023-03-01T11:41:19.129Z,7.13
2023-03-01T11:43:54.174Z,7.43
2023-03-01T11:46:49.637Z,7.10
2023-03-01T11:49:51.897Z,6.95
2023-03-01T11:52:27.954Z,6.88
2023-03-01T11:55:09.665Z,6.80
2023-03-01T11:57:53.781Z,7.35
2023-03-01T12:00:46.699Z,6.47
2023-03-01T12:03:31.116Z,6.95
2023-03-01T12:06:25.294Z,6.72
2023-03-01T12:09:23.286Z,6.55
2023-03-01T12:12:15.816Z,6.25
2023-03-01T12:15:03.586Z,6.25
2023-03-01T12:17:56.815Z,6.15
2023-03-01T12:20:31.826Z,6.07
2023-03-01T12:23:29.301Z,6.13
2023-03-01T12:26:04.309Z,6.32
2023-03-01T12:29:04.212Z,6.95
2023-03-01T12:31:54.820Z,5.57
2023-03-01T12:34:36.131Z,6.22
2023-03-01T12:37:30.622Z,5.68
2023-03-01T12:40:17.223Z,6.22
2023-03-01T12:42:53.851Z,6.28
2023-03-01T12:45:47.911Z,5.68
2023-03-01T12:48:39.219Z,6.28
2023-03-01T12:51:11.661Z,5.68
2023-03-01T12:53:44.478Z,5.78
2023-03-01T12:56:15.855Z,6.07
2023-03-01T12:58:57.532Z,5.80
2023-03-01T13:01:45.984Z,5.80
2023-03-01T13:04:42.627Z,6.45
2023-03-01T13:07:29.549Z,5.55
2023-03-01T13:10:09.390Z,5.57
2023-03-01T13:12:51.969Z,5.57
2023-03-01T13:15:43.940Z,5.88
2023-03-01T13:18:35.034Z,6.15
2023-03-01T13:21:06.496Z,5.55
2023-03-01T13:23:37.234Z,5.75
2023-03-01T13:26:09.724Z,5.07
2023-03-01T13:28:56.915Z,5.40
2023-03-01T13:32:05.494Z,5.63
2023-03-01T13:35:05.689Z,5.47
2023-03-01T13:37:39.694Z,5.68
2023-03-01T13:40:48.904Z,5.72
2023-03-01T13:43:32.811Z,5.80
2023-03-01T13:46:02.123Z,5.85
2023-03-01T13:48:32.598Z,6.00
2023-03-01T13:51:04.000Z,6.25
2023-03-01T13:53:35.490Z,5.72
2023-03-01T13:56:09.209Z,5.63
2023-03-01T13:58:49.217Z,5.80
2023-03-01T14:01:25.009Z,6.03
2023-03-01T14:03:53.170Z,5.55
2023-03-01T14:06:24.444Z,6.40
2023-03-01T14:09:03.052Z,5.70
2023-03-01T14:12:22.209Z,5.70
2023-03-01T14:14:56.082Z,5.28
2023-03-01T14:17:45.978Z,6.13
2023-03-01T14:20:19.841Z,5.85
2023-03-01T14:22:49.184Z,5.72
2023-03-01T14:25:25.737Z,5.75
2023-03-01T14:27:58.156Z,5.93
2023-03-01T14:30:32.252Z,6.30
2023-03-01T14:33:01.426Z,5.35
2023-03-01T14:35:31.842Z,5.28
2023-03-01T14:37:59.825Z,5.22
2023-03-01T14:40:31.590Z,5.72
2023-03-01T14:43:02.611Z,6.38
2023-03-01T14:45:32.740Z,5.78
2023-03-01T14:48:03.369Z,5.68
2023-03-01T14:50:34.164Z,5.68
2023-03-01T14:53:04.864Z,5.70
2023-03-01T14:55:36.807Z,5.40
2023-03-01T14:58:06.276Z,5.85
2023-03-01T15:00:37.074Z,5.55
2023-03-01T15:03:14.348Z,5.53
2023-03-01T15:05:45.054Z,5.30
2023-03-01T15:08:21.200Z,5.60
2023-03-01T15:11:00.123Z,5.43
2023-03-01T15:13:31.816Z,5.75
2023-03-01T15:16:08.090Z,5.75
2023-03-01T15:18:37.758Z,5.57
2023-03-01T15:21:11.899Z,4.97
2023-03-01T15:23:42.129Z,5.60
2023-03-01T15:26:25.758Z,5.18
2023-03-01T15:28:59.052Z,4.72
2023-03-01T15:31:30.543Z,5.35
2023-03-01T15:34:23.309Z,5.28
2023-03-01T15:36:52.122Z,4.63
2023-03-01T15:39:40.065Z,6.00
2023-03-01T15:42:11.020Z,5.45
2023-03-01T15:44:44.056Z,5.90
2023-03-01T15:47:28.594Z,5.90
2023-03-01T15:49:59.112Z,5.63
2023-03-01T15:52:31.327Z,5.32
2023-03-01T15:55:01.357Z,5.30
2023-03-01T15:57:29.879Z,5.47
2023-03-01T15:59:58.002Z,5.25
2023-03-01T16:02:27.432Z,5.65
2023-03-01T16:04:57.354Z,5.43
2023-03-01T16:07:25.470Z,5.82
2023-03-01T16:09:53.400Z,5.32
2023-03-01T16:12:22.180Z,5.82
2023-03-01T16:14:50.612Z,6.22
2023-03-01T16:17:18.865Z,5.75
2023-03-01T16:19:48.220Z,5.30
2023-03-01T16:22:16.494Z,5.28
2023-03-01T16:24:44.805Z,5.57
2023-03-01T16:27:13.479Z,5.18
2023-03-01T16:29:41.499Z,5.35
2023-03-01T16:32:09.793Z,5.55
2023-03-01T16:34:38.909Z,5.53
2023-03-01T16:37:08.726Z,5.13
2023-03-01T16:39:38.015Z,5.07
2023-03-01T16:42:06.441Z,5.00
2023-03-01T16:44:34.547Z,4.97
2023-03-01T16:47:02.895Z,4.65
2023-03-01T16:49:31.188Z,5.30
2023-03-01T16:52:00.157Z,5.10
2023-03-01T16:54:30.238Z,5.05
2023-03-01T16:56:58.963Z,5.00
2023-03-01T16:59:27.132Z,4.70
2023-03-01T17:01:55.198Z,5.28
2023-03-01T17:04:23.479Z,4.85
2023-03-01T17:06:52.349Z,5.18
2023-03-01T17:09:23.192Z,5.20
2023-03-01T17:11:53.301Z,5.50
2023-03-01T17:14:22.695Z,4.72
2023-03-01T17:16:55.590Z,4.47
2023-03-01T17:19:23.930Z,4.75
2023-03-01T17:22:02.710Z,5.07
2023-03-01T17:24:34.173Z,4.55
2023-03-01T17:27:04.402Z,4.53
2023-03-01T17:29:32.843Z,4.90
2023-03-01T17:32:01.145Z,5.00
2023-03-01T17:34:29.349Z,4.95
2023-03-01T17:36:57.243Z,5.07
2023-03-01T17:39:32.247Z,4.82
2023-03-01T17:42:00.902Z,4.68
2023-03-01T17:44:30.468Z,4.68
2023-03-01T17:46:58.375Z,4.60
2023-03-01T17:49:26.363Z,4.82
2023-03-01T17:51:54.731Z,4.65
2023-03-01T17:54:22.818Z,5.30
2023-03-01T17:56:50.902Z,4.97
2023-03-01T17:59:19.336Z,5.40
2023-03-01T18:01:49.401Z,4.57
2023-03-01T18:04:18.449Z,5.07
2023-03-01T18:06:46.472Z,4.85
2023-03-01T18:09:14.928Z,4.78
2023-03-01T18:11:46.194Z,5.03
2023-03-01T18:14:14.744Z,4.82
2023-03-01T18:16:42.714Z,5.55
2023-03-01T18:19:13.261Z,5.03
2023-03-01T18:21:41.299Z,4.75
2023-03-01T18:24:09.504Z,4.85
2023-03-01T18:26:39.203Z,5.47
2023-03-01T18:29:07.995Z,5.40
2023-03-01T18:31:35.832Z,4.63
2023-03-01T18:34:04.474Z,5.00
2023-03-01T18:36:36.083Z,5.15
2023-03-01T18:39:05.362Z,5.30
2023-03-01T18:41:34.162Z,5.15
2023-03-01T18:44:03.074Z,5.75
2023-03-01T18:46:32.047Z,5.15
2023-03-01T18:49:00.411Z,5.50
2023-03-01T18:51:30.274Z,4.93
2023-03-01T18:54:01.531Z,5.15
2023-03-01T18:56:33.832Z,4.90
2023-03-01T18:59:03.917Z,5.30
2023-03-01T19:01:36.604Z,5.07
2023-03-01T19:04:05.760Z,5.20
2023-03-01T19:06:35.367Z,5.95
2023-03-01T19:09:05.619Z,5.65
2023-03-01T19:11:35.353Z,5.38
2023-03-01T19:14:03.792Z,5.10
2023-03-01T19:16:35.782Z,5.43
2023-03-01T19:19:05.428Z,5.10
2023-03-01T19:21:34.358Z,5.28
2023-03-01T19:24:04.430Z,5.45
2023-03-01T19:26:36.713Z,5.18
2023-03-01T19:29:06.153Z,5.38
2023-03-01T19:31:34.226Z,5.13
2023-03-01T19:34:10.937Z,5.43
2023-03-01T19:36:41.665Z,5.10
2023-03-01T19:39:13.273Z,5.47
2023-03-01T19:41:42.140Z,5.55
2023-03-01T19:44:10.416Z,5.07
2023-03-01T19:46:38.731Z,5.28
2023-03-01T19:49:20.276Z,4.93
2023-03-01T19:51:48.134Z,5.00
2023-03-01T19:54:20.269Z,5.43
2023-03-01T19:56:48.255Z,5.22
2023-03-01T19:59:19.211Z,5.10
2023-03-01T20:01:47.382Z,5.90
2023-03-01T20:04:16.791Z,5.72
2023-03-01T20:06:47.017Z,5.82
2023-03-01T20:09:22.103Z,5.85
2023-03-01T20:11:52.982Z,5.88
2023-03-01T20:14:23.700Z,5.95
2023-03-01T20:16:52.065Z,5.53
2023-03-01T20:19:19.965Z,6.07
2023-03-01T20:21:47.974Z,6.28
2023-03-01T20:24:17.295Z,6.03
2023-03-01T20:26:45.077Z,5.80
2023-03-01T20:29:12.888Z,6.22
2023-03-01T20:31:42.451Z,6.40
2023-03-01T20:34:10.649Z,5.88
2023-03-01T20:36:40.826Z,5.55
2023-03-01T20:39:09.808Z,6.28
2023-03-01T20:41:39.714Z,6.13
2023-03-01T20:44:07.701Z,6.20
2023-03-01T20:46:36.890Z,6.60
2023-03-01T20:49:05.789Z,7.43
2023-03-01T20:51:33.907Z,6.82
2023-03-01T20:54:01.697Z,7.53
2023-03-01T20:56:29.645Z,7.13
2023-03-01T20:58:59.304Z,7.18
2023-03-01T21:01:27.446Z,8.20
2023-03-01T21:03:55.866Z,7.45
2023-03-01T21:06:24.008Z,7.63
2023-03-01T21:08:52.679Z,6.50
2023-03-01T21:11:24.738Z,6.90
2023-03-01T21:13:52.853Z,6.65
2023-03-01T21:16:22.757Z,7.25
2023-03-01T21:18:50.847Z,7.10
2023-03-01T21:21:20.276Z,6.57
2023-03-01T21:23:48.811Z,6.72
2023-03-01T21:26:20.231Z,6.50
2023-03-01T21:28:50.025Z,6.88
2023-03-01T21:31:19.380Z,7.05
2023-03-01T21:33:50.462Z,7.22
2023-03-01T21:36:19.424Z,6.88
2023-03-01T21:38:49.948Z,6.72
2023-03-01T21:41:20.239Z,6.82
2023-03-01T21:43:50.645Z,7.70
2023-03-01T21:46:21.710Z,7.22
2023-03-01T21:48:52.258Z,7.32
2023-03-01T21:51:21.977Z,7.30
2023-03-01T21:53:50.558Z,7.60
2023-03-01T21:56:21.049Z,7.20
2023-03-01T21:58:49.558Z,7.20
2023-03-01T22:01:21.583Z,6.97
2023-03-01T22:03:51.700Z,6.88
2023-03-01T22:06:22.726Z,6.55
2023-03-01T22:08:52.678Z,6.78
2023-03-01T22:11:22.123Z,6.90
2023-03-01T22:13:53.220Z,7.45
2023-03-01T22:16:23.150Z,6.95
2023-03-01T22:18:52.981Z,7.47
2023-03-01T22:21:21.403Z,8.05
2023-03-01T22:23:50.054Z,7.57
2023-03-01T22:26:27.192Z,7.63
2023-03-01T22:28:57.240Z,7.97
2023-03-01T22:31:25.251Z,8.65
2023-03-01T22:33:55.642Z,10.32
2023-03-01T22:36:23.719Z,10.10
2023-03-01T22:38:58.686Z,10.15
2023-03-01T22:41:27.739Z,9.48
2023-03-01T22:43:55.962Z,9.90
2023-03-01T22:46:24.759Z,9.23
2023-03-01T22:48:54.224Z,9.73
2023-03-01T22:51:25.067Z,8.95
2023-03-01T22:53:53.247Z,9.32
2023-03-01T22:56:23.672Z,9.63
2023-03-01T22:58:51.534Z,8.98
2023-03-01T23:01:22.483Z,9.95
2023-03-01T23:03:50.811Z,9.52
2023-03-01T23:06:22.030Z,9.07
2023-03-01T23:08:51.506Z,9.68
2023-03-01T23:11:20.993Z,9.23
2023-03-01T23:13:49.570Z,9.68
2023-03-01T23:16:18.350Z,9.20
2023-03-01T23:18:46.794Z,10.15
2023-03-01T23:21:17.096Z,9.63
2023-03-01T23:23:47.336Z,9.35
2023-03-01T23:26:16.155Z,9.35
2023-03-01T23:28:44.761Z,10.10
2023-03-01T23:31:15.298Z,9.60
2023-03-01T23:33:45.213Z,9.52
2023-03-01T23:36:18.573Z,9.88
2023-03-01T23:38:48.829Z,10.45
2023-03-01T23:41:21.665Z,9.65
2023-03-01T23:43:51.760Z,9.50
2023-03-01T23:46:22.079Z,9.93
2023-03-01T23:48:50.370Z,9.52
2023-03-01T23:51:19.163Z,9.27
2023-03-01T23:53:55.074Z,9.82
2023-03-01T23:56:27.089Z,9.98
2023-03-01T23:58:55.844Z,9.68
